Allagash, Maine
Current Conditions -  °F | °C
As of 12:53 AM on Thursday 23 Oct 2014 (Local Time) from KFVE Reporting Station
Overcast Overcast  
Wind Chill: -1°   Ceiling: 6500
Heat Index:   Visibility: 10mi
Dew Point:   Wind: 14mph
Humidity: 76%   Direction: 60°ENE
Pressure: 30.3"   Gusts: 23mph
Location:  47.1951°N, 69.2728°W
Report Text: KFVE 230453Z AUTO 06012G20KT 10SM FEW047 OVC065 04/00 A3030 RMK AO2 SLP266 T00390000 400891011
Loading
Personal Weather Stations






























Interactive Weather Map
Tropical Storm Tracking
New forecast layout! Learn more

10-Day Weather Forecast

Advertisements
Track Severe Weather on mobile